Time;durP1;ratioP1;P1;durP2;ratioP2;P2;SDS_P1;SDS_P2;PMS_P1;PMS_P2;Temp;Humidity;BMP_temperature;BMP_pressure;BME280_temperature;BME280_humidity;BME280_pressure;Samples;Min_cycle;Max_cycle;Signal;HPM_P1;HPM_P2
2021/05/07 00:00:46;;;;;;;6.88;1.10;;;22.30;53.90;;;;;;3090409;28;20051;-66
2021/05/07 00:02:17;;;;;;;3.65;1.10;;;22.30;53.90;;;;;;3090166;28;20762;-66
2021/05/07 00:03:49;;;;;;;5.15;1.10;;;22.30;53.70;;;;;;3090367;28;20050;-66
2021/05/07 00:05:20;;;;;;;2.20;1.20;;;22.30;53.60;;;;;;3090265;28;20508;-66
2021/05/07 00:06:52;;;;;;;2.83;1.05;;;22.30;53.60;;;;;;3090088;28;20086;-66
2021/05/07 00:08:25;;;;;;;10.88;1.40;;;22.30;53.60;;;;;;3090234;28;20046;-66
2021/05/07 00:09:57;;;;;;;2.47;1.20;;;22.30;53.50;;;;;;3090161;28;20051;-66
2021/05/07 00:11:31;;;;;;;7.88;1.30;;;22.30;53.40;;;;;;3090090;28;20086;-66
2021/05/07 00:13:02;;;;;;;3.10;1.10;;;22.30;53.60;;;;;;3090211;28;20058;-66
2021/05/07 00:14:34;;;;;;;3.53;1.05;;;22.30;53.70;;;;;;3090145;28;20389;-66
2021/05/07 00:16:05;;;;;;;2.17;1.10;;;22.20;53.70;;;;;;3090140;28;20058;-66
2021/05/07 00:17:37;;;;;;;6.45;1.10;;;22.20;53.70;;;;;;3090082;28;20062;-66
2021/05/07 00:19:08;;;;;;;6.35;1.40;;;22.30;53.70;;;;;;3090215;28;20110;-65
2021/05/07 00:20:39;;;;;;;1.83;1.15;;;22.20;53.60;;;;;;3089891;28;20117;-65
2021/05/07 00:22:11;;;;;;;3.38;1.00;;;22.30;53.70;;;;;;3090014;28;20055;-66
2021/05/07 00:23:43;;;;;;;6.25;1.40;;;22.30;53.70;;;;;;3089949;28;20125;-66
2021/05/07 00:25:14;;;;;;;4.70;1.30;;;22.30;54.00;;;;;;3089973;28;20362;-66
2021/05/07 00:26:47;;;;;;;3.38;1.10;;;22.30;53.80;;;;;;3089852;28;20058;-66
2021/05/07 00:28:19;;;;;;;3.58;1.20;;;22.30;53.80;;;;;;3090107;28;20054;-66
2021/05/07 00:29:50;;;;;;;3.33;1.03;;;22.30;53.70;;;;;;3090125;28;20133;-65
2021/05/07 00:31:22;;;;;;;5.97;1.27;;;22.20;53.60;;;;;;3089744;28;20046;-66
2021/05/07 00:32:53;;;;;;;5.50;1.23;;;22.20;53.50;;;;;;3089899;28;20385;-65
2021/05/07 00:34:25;;;;;;;3.13;1.10;;;22.20;53.40;;;;;;3089832;28;20050;-66
2021/05/07 00:35:56;;;;;;;5.18;1.02;;;22.20;53.20;;;;;;3089776;28;20051;-66
2021/05/07 00:37:28;;;;;;;5.05;1.20;;;22.20;53.50;;;;;;3089984;28;20074;-65
2021/05/07 00:38:59;;;;;;;2.35;0.80;;;22.20;53.20;;;;;;3089961;28;20065;-65
2021/05/07 00:40:31;;;;;;;4.05;1.08;;;22.20;53.20;;;;;;3089835;28;20051;-65
2021/05/07 00:42:04;;;;;;;3.83;1.05;;;22.20;53.20;;;;;;3089692;28;20061;-66
2021/05/07 00:43:37;;;;;;;3.08;1.08;;;22.20;53.20;;;;;;3089254;28;20059;-66
2021/05/07 00:45:10;;;;;;;4.03;1.02;;;22.20;53.10;;;;;;3089602;28;20481;-66
2021/05/07 00:46:42;;;;;;;3.72;1.23;;;22.20;53.10;;;;;;3089872;28;20101;-66
2021/05/07 00:48:14;;;;;;;4.60;1.10;;;22.20;53.00;;;;;;3089724;28;20054;-66
2021/05/07 00:49:45;;;;;;;2.95;1.17;;;22.20;53.00;;;;;;3089632;28;20047;-66
2021/05/07 00:51:17;;;;;;;3.35;1.00;;;22.20;53.00;;;;;;3089701;28;20057;-66
2021/05/07 00:52:48;;;;;;;1.98;0.88;;;22.20;52.90;;;;;;3089660;28;20183;-66
2021/05/07 00:54:19;;;;;;;2.50;1.20;;;22.20;52.90;;;;;;3089825;28;20042;-66
2021/05/07 00:55:51;;;;;;;2.58;0.88;;;22.20;52.80;;;;;;3089688;28;20046;-66
2021/05/07 00:57:23;;;;;;;2.30;0.95;;;22.20;52.90;;;;;;3089534;28;20051;-66
2021/05/07 00:58:54;;;;;;;3.13;0.90;;;22.20;52.80;;;;;;3089647;28;20493;-66
2021/05/07 01:00:26;;;;;;;1.05;0.85;;;22.20;52.80;;;;;;3089644;28;20051;-66
2021/05/07 01:01:58;;;;;;;2.40;1.15;;;22.20;53.00;;;;;;3089423;28;20476;-66
2021/05/07 01:03:29;;;;;;;4.68;1.23;;;22.20;52.80;;;;;;3089511;28;20072;-66
2021/05/07 01:05:01;;;;;;;8.15;1.30;;;22.20;52.80;;;;;;3089604;28;20355;-66
2021/05/07 01:06:33;;;;;;;2.10;0.90;;;22.20;52.70;;;;;;3089483;28;20244;-66
2021/05/07 01:08:04;;;;;;;2.63;0.88;;;22.20;52.60;;;;;;3089588;28;20116;-66
2021/05/07 01:09:36;;;;;;;3.08;0.90;;;22.20;52.60;;;;;;3089473;28;20482;-66
2021/05/07 01:11:07;;;;;;;2.97;1.20;;;22.20;52.70;;;;;;3089515;28;20063;-66
2021/05/07 01:12:40;;;;;;;2.83;0.88;;;22.20;52.60;;;;;;3089413;28;20054;-67
2021/05/07 01:14:11;;;;;;;2.53;1.10;;;22.20;52.60;;;;;;3100057;23;20267;-78
2021/05/07 01:15:42;;;;;;;4.63;1.10;;;22.20;52.50;;;;;;3065444;28;20075;-77
2021/05/07 01:17:13;;;;;;;12.15;1.45;;;22.20;52.60;;;;;;3072442;29;20051;-79
2021/05/07 01:18:44;;;;;;;5.93;1.00;;;22.20;53.20;;;;;;3074066;29;20070;-77
2021/05/07 01:20:17;;;;;;;7.50;1.10;;;22.20;53.00;;;;;;3073758;29;20054;-77
2021/05/07 01:21:48;;;;;;;8.38;1.13;;;22.20;52.90;;;;;;3074609;29;20078;-79
2021/05/07 01:23:19;;;;;;;6.28;1.27;;;22.20;53.00;;;;;;3074710;28;20058;-77
2021/05/07 01:24:50;;;;;;;7.30;0.93;;;22.30;53.10;;;;;;3073859;29;20110;-80
2021/05/07 01:26:21;;;;;;;4.65;1.30;;;22.20;53.00;;;;;;3073853;29;20051;-77
2021/05/07 01:27:53;;;;;;;4.22;1.15;;;22.20;52.90;;;;;;3073913;29;20157;-78
2021/05/07 01:29:25;;;;;;;1.92;1.00;;;22.20;52.90;;;;;;3073577;29;20102;-78
2021/05/07 01:30:56;;;;;;;3.42;1.13;;;22.20;52.90;;;;;;3073359;29;20047;-76
2021/05/07 01:32:26;;;;;;;2.35;1.17;;;22.20;52.90;;;;;;3074309;29;20078;-76
2021/05/07 01:33:57;;;;;;;5.68;1.05;;;22.20;52.90;;;;;;3074455;29;20073;-78
2021/05/07 01:35:30;;;;;;;4.10;0.90;;;22.20;53.00;;;;;;3072784;29;20063;-78
2021/05/07 01:37:01;;;;;;;7.85;1.02;;;22.20;53.00;;;;;;3075184;29;20077;-79
2021/05/07 01:38:32;;;;;;;4.70;0.88;;;22.20;52.90;;;;;;3075673;29;20497;-77
2021/05/07 01:40:17;;;;;;;6.40;0.98;;;22.20;52.90;;;;;;3075125;29;20510;-77
2021/05/07 01:41:48;;;;;;;4.53;1.05;;;22.30;53.00;;;;;;3074448;29;20051;-79
2021/05/07 01:43:19;;;;;;;8.93;1.13;;;22.20;52.90;;;;;;3074443;29;20467;-77
2021/05/07 01:44:50;;;;;;;1.63;0.75;;;22.30;52.90;;;;;;3073578;28;20083;-79
2021/05/07 01:46:21;;;;;;;2.75;0.80;;;22.20;52.90;;;;;;3073141;29;20042;-77
2021/05/07 01:47:52;;;;;;;3.75;0.95;;;22.20;53.00;;;;;;3073407;29;20105;-77
2021/05/07 01:49:23;;;;;;;8.20;1.23;;;22.20;53.00;;;;;;3073450;28;20082;-77
2021/05/07 01:50:55;;;;;;;13.65;1.20;;;22.20;53.10;;;;;;3074091;29;20083;-78
2021/05/07 01:52:25;;;;;;;6.63;1.08;;;22.30;53.30;;;;;;3073726;28;20055;-78
2021/05/07 01:53:56;;;;;;;8.48;1.27;;;22.20;53.10;;;;;;3073196;28;20054;-78
2021/05/07 01:55:29;;;;;;;4.78;1.27;;;22.20;53.20;;;;;;3072712;29;20090;-77
2021/05/07 01:57:00;;;;;;;5.88;1.10;;;22.20;53.20;;;;;;3074395;29;20094;-77
2021/05/07 01:58:31;;;;;;;5.95;0.80;;;22.20;53.20;;;;;;3073773;29;20111;-77
2021/05/07 02:00:01;;;;;;;6.95;1.20;;;22.20;53.10;;;;;;3073836;29;20074;-79
2021/05/07 02:01:33;;;;;;;9.27;0.90;;;22.20;53.80;;;;;;3073264;29;20417;-78
2021/05/07 02:03:04;;;;;;;10.23;1.15;;;22.20;53.30;;;;;;3074566;29;20402;-77
2021/05/07 02:04:35;;;;;;;13.32;1.23;;;22.20;53.50;;;;;;3073796;29;20125;-77
2021/05/07 02:06:07;;;;;;;14.60;1.27;;;22.30;53.90;;;;;;3073841;29;20058;-77
2021/05/07 02:07:39;;;;;;;5.70;1.20;;;22.30;54.10;;;;;;3073831;29;20202;-78
2021/05/07 02:09:10;;;;;;;9.93;1.33;;;22.30;53.80;;;;;;3075410;29;20062;-78
2021/05/07 02:10:40;;;;;;;8.55;1.30;;;22.30;53.80;;;;;;3074118;28;20719;-77
2021/05/07 02:12:11;;;;;;;9.23;1.10;;;22.30;53.70;;;;;;3074733;29;20057;-80
2021/05/07 02:13:42;;;;;;;16.30;1.63;;;22.30;53.70;;;;;;3073212;29;20075;-78
2021/05/07 02:15:15;;;;;;;13.43;1.95;;;22.30;54.20;;;;;;3071829;29;20098;-78
2021/05/07 02:16:45;;;;;;;12.23;1.52;;;22.30;54.30;;;;;;3073297;29;20062;-79
2021/05/07 02:18:16;;;;;;;12.27;1.67;;;22.30;54.50;;;;;;3073465;29;20486;-78
2021/05/07 02:19:48;;;;;;;11.02;1.40;;;22.30;54.50;;;;;;3072407;29;20055;-78
2021/05/07 02:21:20;;;;;;;9.05;1.52;;;22.30;54.60;;;;;;3073427;29;20090;-77
2021/05/07 02:22:51;;;;;;;13.07;1.70;;;22.30;54.60;;;;;;3073285;28;20051;-77
2021/05/07 02:24:21;;;;;;;24.38;1.92;;;22.30;54.60;;;;;;3073169;29;20054;-79
2021/05/07 02:25:53;;;;;;;26.95;1.90;;;22.20;54.70;;;;;;3072813;29;20516;-77
2021/05/07 02:27:24;;;;;;;22.77;1.90;;;22.30;55.10;;;;;;3073088;29;20043;-78
2021/05/07 02:28:55;;;;;;;13.75;1.85;;;22.30;55.20;;;;;;3073364;29;20057;-78
2021/05/07 02:30:27;;;;;;;19.73;1.73;;;22.20;55.00;;;;;;3072051;28;20471;-78
2021/05/07 02:31:58;;;;;;;18.27;1.45;;;22.20;55.10;;;;;;3072864;28;20081;-78
2021/05/07 02:33:29;;;;;;;19.50;1.75;;;22.20;55.10;;;;;;3073131;29;20084;-78
2021/05/07 02:35:00;;;;;;;16.35;1.55;;;22.20;55.30;;;;;;3072885;29;20518;-80
2021/05/07 02:36:32;;;;;;;20.33;1.98;;;22.20;55.40;;;;;;3072567;29;20078;-78
2021/05/07 02:38:04;;;;;;;11.70;1.35;;;22.10;55.90;;;;;;3073042;29;20145;-78
2021/05/07 02:39:35;;;;;;;14.10;1.95;;;22.10;55.30;;;;;;3072822;29;20070;-78
2021/05/07 02:41:05;;;;;;;11.70;1.38;;;22.10;55.30;;;;;;3073151;29;20079;-78
2021/05/07 02:42:36;;;;;;;20.65;2.13;;;22.10;55.40;;;;;;3072499;29;20062;-78
2021/05/07 02:44:07;;;;;;;11.45;1.13;;;22.10;55.40;;;;;;3073077;29;20082;-78
2021/05/07 02:45:38;;;;;;;14.07;1.60;;;22.10;55.40;;;;;;3071469;29;20039;-78
2021/05/07 02:47:09;;;;;;;11.27;1.40;;;22.10;55.40;;;;;;3073189;29;20089;-78
2021/05/07 02:48:40;;;;;;;11.75;1.30;;;22.10;55.40;;;;;;3072907;29;20059;-76
2021/05/07 02:50:12;;;;;;;13.10;1.42;;;22.10;55.40;;;;;;3071994;29;20055;-78
2021/05/07 02:51:43;;;;;;;7.65;1.20;;;22.10;55.40;;;;;;3073169;29;20047;-78
2021/05/07 02:53:16;;;;;;;9.70;1.27;;;22.10;55.40;;;;;;3072988;29;20071;-78
2021/05/07 02:54:47;;;;;;;12.63;1.30;;;22.00;55.30;;;;;;3072231;29;20110;-77
2021/05/07 02:56:18;;;;;;;15.10;1.40;;;22.10;55.40;;;;;;3072840;29;20079;-78
2021/05/07 02:57:49;;;;;;;16.05;1.45;;;22.00;55.40;;;;;;3072957;29;20082;-78
2021/05/07 02:59:20;;;;;;;8.93;1.55;;;22.00;55.40;;;;;;3072181;28;20087;-78
2021/05/07 03:00:51;;;;;;;9.90;1.35;;;22.00;55.40;;;;;;3071928;28;20050;-77
2021/05/07 03:02:22;;;;;;;7.85;1.40;;;22.00;55.30;;;;;;3072612;28;20105;-78
2021/05/07 03:03:53;;;;;;;15.25;1.42;;;22.00;55.30;;;;;;3073188;29;20091;-77
2021/05/07 03:05:24;;;;;;;7.75;1.10;;;22.00;55.30;;;;;;3071595;28;20053;-77
2021/05/07 03:06:56;;;;;;;10.55;1.30;;;21.90;55.20;;;;;;3072981;29;20098;-78
2021/05/07 03:08:27;;;;;;;7.10;1.23;;;22.00;55.20;;;;;;3072824;29;20079;-77
2021/05/07 03:09:58;;;;;;;4.68;1.00;;;21.90;55.20;;;;;;3072054;29;20051;-78
2021/05/07 03:11:29;;;;;;;8.45;1.20;;;21.90;55.20;;;;;;3072994;28;20051;-79
2021/05/07 03:13:00;;;;;;;12.35;1.10;;;21.90;55.20;;;;;;3072665;29;20093;-78
2021/05/07 03:14:31;;;;;;;6.15;1.30;;;21.90;55.20;;;;;;3072109;28;20083;-78
2021/05/07 03:16:03;;;;;;;4.88;1.55;;;21.90;55.20;;;;;;3071364;28;20421;-76
2021/05/07 03:17:36;;;;;;;7.55;1.10;;;21.90;55.20;;;;;;3072485;29;20086;-78
2021/05/07 03:19:07;;;;;;;5.72;1.13;;;21.90;55.30;;;;;;3072226;29;20066;-77
2021/05/07 03:20:37;;;;;;;3.90;1.00;;;21.90;55.40;;;;;;3071800;29;20086;-78
2021/05/07 03:22:09;;;;;;;10.77;1.35;;;21.90;55.30;;;;;;3072794;28;20051;-78
2021/05/07 03:23:40;;;;;;;10.05;1.20;;;21.90;55.40;;;;;;3072913;29;20522;-78
2021/05/07 03:25:12;;;;;;;7.15;1.23;;;21.90;55.40;;;;;;3071955;28;20075;-79
2021/05/07 03:26:43;;;;;;;3.92;1.00;;;21.90;55.50;;;;;;3072201;29;20050;-77
2021/05/07 03:28:14;;;;;;;4.85;0.82;;;21.90;55.40;;;;;;3072688;29;20125;-79
2021/05/07 03:29:45;;;;;;;10.40;1.20;;;21.90;55.40;;;;;;3072435;29;20071;-79
2021/05/07 03:31:16;;;;;;;6.22;1.40;;;21.80;55.40;;;;;;3071907;29;20078;-79
2021/05/07 03:32:47;;;;;;;7.18;1.13;;;21.80;55.40;;;;;;3072101;28;20044;-77
2021/05/07 03:34:18;;;;;;;4.38;1.00;;;21.80;55.30;;;;;;3072210;29;20580;-78
2021/05/07 03:35:49;;;;;;;9.18;1.13;;;21.90;55.40;;;;;;3072135;29;20067;-77
2021/05/07 03:37:21;;;;;;;7.72;1.55;;;21.90;55.40;;;;;;3072693;29;20092;-78
2021/05/07 03:38:52;;;;;;;6.50;1.00;;;21.90;56.10;;;;;;3072795;29;20075;-76
2021/05/07 03:40:23;;;;;;;8.90;1.17;;;21.90;55.60;;;;;;3071885;29;20075;-78
2021/05/07 03:41:54;;;;;;;5.70;0.90;;;21.80;55.50;;;;;;3072666;28;20086;-76
2021/05/07 03:43:25;;;;;;;5.65;1.02;;;21.80;55.40;;;;;;3072431;29;20794;-78
2021/05/07 03:44:56;;;;;;;5.85;1.00;;;21.80;55.50;;;;;;3071704;28;20094;-78
2021/05/07 03:46:27;;;;;;;4.97;0.98;;;21.80;55.50;;;;;;3071728;29;20086;-77
2021/05/07 03:47:58;;;;;;;5.35;0.98;;;21.80;55.50;;;;;;3072670;29;20086;-77
2021/05/07 03:49:30;;;;;;;6.78;1.00;;;21.90;55.70;;;;;;3071950;29;20517;-78
2021/05/07 03:51:01;;;;;;;3.50;1.08;;;21.80;55.50;;;;;;3072357;29;20421;-77
2021/05/07 03:52:33;;;;;;;4.30;1.25;;;21.80;55.50;;;;;;3072507;29;20051;-77
2021/05/07 03:54:05;;;;;;;4.50;1.02;;;21.80;55.50;;;;;;3072923;29;20434;-78
2021/05/07 03:55:36;;;;;;;3.13;0.80;;;21.80;55.50;;;;;;3071262;29;20612;-79
2021/05/07 03:58:41;;;;;;;3.85;0.93;;;21.80;55.50;;;;;;3056274;29;20439;-77
2021/05/07 04:00:13;;;;;;;3.60;0.88;;;21.80;55.70;;;;;;3048451;29;20071;-78
2021/05/07 04:01:43;;;;;;;3.47;1.20;;;21.80;56.30;;;;;;3053440;29;20492;-78
2021/05/07 04:03:14;;;;;;;2.20;1.00;;;21.80;55.60;;;;;;3049642;29;20048;-78
2021/05/07 04:04:46;;;;;;;2.78;0.82;;;21.80;55.60;;;;;;3059467;29;20542;-77
2021/05/07 04:06:20;;;;;;;1.67;0.90;;;21.80;55.60;;;;;;3060618;29;20052;-77
2021/05/07 04:08:00;;;;;;;2.25;0.82;;;21.80;55.70;;;;;;3060908;29;20138;-77
2021/05/07 04:09:34;;;;;;;4.80;1.00;;;21.80;55.60;;;;;;3060251;29;20059;-78
2021/05/07 04:11:09;;;;;;;2.63;0.90;;;21.80;55.60;;;;;;3060600;29;20059;-78
2021/05/07 04:14:29;;;;;;;2.22;0.93;;;21.80;55.70;;;;;;3060482;29;20491;-77
2021/05/07 04:16:00;;;;;;;2.42;0.93;;;21.80;55.70;;;;;;3059406;29;20086;-78
2021/05/07 04:17:31;;;;;;;3.15;0.95;;;21.80;55.70;;;;;;3060923;29;20047;-77
2021/05/07 04:19:02;;;;;;;2.88;1.10;;;21.80;55.70;;;;;;3062659;29;20079;-77
2021/05/07 04:20:33;;;;;;;3.10;0.70;;;21.80;55.60;;;;;;3061986;29;20653;-77
2021/05/07 04:22:04;;;;;;;2.95;0.88;;;21.80;55.60;;;;;;3062956;29;20052;-77
2021/05/07 04:23:35;;;;;;;1.88;0.85;;;21.70;55.50;;;;;;3063121;29;20056;-77
2021/05/07 04:25:07;;;;;;;2.33;0.75;;;21.80;55.70;;;;;;3062374;29;20062;-78
2021/05/07 04:26:40;;;;;;;1.63;0.73;;;21.80;55.60;;;;;;3062965;29;20071;-77
2021/05/07 04:28:11;;;;;;;2.28;0.80;;;21.80;55.70;;;;;;3063193;29;20307;-77
2021/05/07 04:29:42;;;;;;;5.90;0.98;;;21.80;55.60;;;;;;3062261;29;20048;-77
2021/05/07 04:31:13;;;;;;;2.50;0.90;;;21.80;55.70;;;;;;3062005;29;20078;-78
2021/05/07 04:32:44;;;;;;;3.33;0.90;;;21.80;55.70;;;;;;3062856;29;20067;-78
2021/05/07 04:34:15;;;;;;;1.50;0.70;;;21.80;55.70;;;;;;3062485;29;20091;-78
2021/05/07 04:35:46;;;;;;;3.13;0.95;;;21.80;55.70;;;;;;3062876;29;20098;-77
2021/05/07 04:37:17;;;;;;;2.30;1.20;;;21.80;55.70;;;;;;3062856;29;20048;-77
2021/05/07 04:38:50;;;;;;;2.40;0.80;;;21.80;55.70;;;;;;3063018;29;20537;-77
2021/05/07 04:40:20;;;;;;;;;;;21.80;55.70;;;;;;3051354;29;20435;-77
2021/05/07 04:41:52;;;;;;;1.33;0.73;;;21.80;55.70;;;;;;3060538;29;19918;-78
2021/05/07 04:43:23;;;;;;;1.88;0.70;;;21.80;55.70;;;;;;3062495;29;20055;-77
2021/05/07 04:44:54;;;;;;;1.15;0.70;;;21.80;55.90;;;;;;3062551;29;20509;-77
2021/05/07 04:46:25;;;;;;;1.63;0.70;;;21.70;55.60;;;;;;3061797;29;20054;-77
2021/05/07 04:47:56;;;;;;;2.42;0.80;;;21.80;55.70;;;;;;3062707;29;20074;-77
2021/05/07 04:49:27;;;;;;;1.30;0.88;;;21.80;55.70;;;;;;3062183;29;20078;-77
2021/05/07 04:50:58;;;;;;;1.83;0.70;;;21.80;55.70;;;;;;3062770;29;20470;-77
2021/05/07 04:52:29;;;;;;;2.67;0.77;;;21.70;56.00;;;;;;3062665;29;20082;-78
2021/05/07 04:54:02;;;;;;;5.03;0.93;;;21.80;55.90;;;;;;3062745;29;20419;-77
2021/05/07 04:55:33;;;;;;;2.30;0.73;;;21.80;55.80;;;;;;3061437;29;20067;-77
2021/05/07 04:57:05;;;;;;;6.07;0.98;;;21.70;56.00;;;;;;3061879;29;20083;-77
2021/05/07 04:58:36;;;;;;;3.70;0.90;;;21.80;56.10;;;;;;3062243;29;20067;-77
2021/05/07 05:00:08;;;;;;;1.77;1.08;;;21.80;56.40;;;;;;3060843;29;20131;-77
2021/05/07 05:01:39;;;;;;;4.57;0.60;;;21.80;56.40;;;;;;3062772;29;20127;-77
2021/05/07 05:03:10;;;;;;;9.73;1.15;;;21.80;56.20;;;;;;3054549;29;20186;-76
2021/05/07 05:04:41;;;;;;;2.65;0.77;;;21.80;56.00;;;;;;3050386;29;20059;-77
2021/05/07 05:06:12;;;;;;;1.80;0.90;;;21.80;56.10;;;;;;3050656;29;20052;-77
2021/05/07 05:07:47;;;;;;;10.27;1.00;;;21.80;56.10;;;;;;3050778;29;20087;-77
2021/05/07 05:09:19;;;;;;;7.75;1.25;;;21.90;56.00;;;;;;3050224;29;20044;-78
2021/05/07 05:10:53;;;;;;;5.28;1.02;;;21.80;55.80;;;;;;3050564;29;20134;-77
2021/05/07 05:12:24;;;;;;;5.25;1.00;;;21.80;55.70;;;;;;3050718;29;20503;-78
2021/05/07 05:13:55;;;;;;;6.13;1.25;;;21.80;55.60;;;;;;3053849;29;20052;-77
2021/05/07 05:15:26;;;;;;;8.13;1.10;;;21.80;55.60;;;;;;3052341;29;20507;-77
2021/05/07 05:16:57;;;;;;;13.57;1.02;;;21.80;55.50;;;;;;3051551;29;20044;-77
2021/05/07 05:18:29;;;;;;;7.53;0.90;;;21.80;55.50;;;;;;3060570;29;20094;-77
2021/05/07 05:20:00;;;;;;;6.22;1.13;;;21.70;55.50;;;;;;3050559;29;20059;-77
2021/05/07 05:21:31;;;;;;;7.78;0.82;;;21.70;55.50;;;;;;3050399;29;20330;-77
2021/05/07 05:23:02;;;;;;;11.75;0.90;;;21.80;55.50;;;;;;3054087;29;20044;-77
2021/05/07 05:24:34;;;;;;;6.45;1.00;;;21.70;55.50;;;;;;3061877;28;20079;-76
2021/05/07 05:26:06;;;;;;;5.88;0.80;;;21.70;55.50;;;;;;3061832;29;20651;-77
2021/05/07 05:27:37;;;;;;;6.35;0.80;;;21.70;55.50;;;;;;3061580;29;20070;-76
2021/05/07 05:29:11;;;;;;;4.15;0.90;;;21.70;55.40;;;;;;3061934;29;20082;-77
2021/05/07 05:30:42;;;;;;;6.63;1.10;;;21.70;55.50;;;;;;3060917;29;20059;-77
2021/05/07 05:32:13;;;;;;;9.32;0.90;;;21.70;55.50;;;;;;3062004;29;20609;-77
2021/05/07 05:33:44;;;;;;;1.52;0.68;;;21.70;55.50;;;;;;3062118;29;20047;-77
2021/05/07 05:35:15;;;;;;;10.52;0.95;;;21.70;55.50;;;;;;3061199;29;20078;-76
2021/05/07 05:36:47;;;;;;;3.13;0.75;;;21.70;55.50;;;;;;3062127;29;20086;-76
2021/05/07 05:38:18;;;;;;;5.03;0.88;;;21.70;55.50;;;;;;3062018;29;20051;-77
2021/05/07 05:39:50;;;;;;;4.55;1.13;;;21.70;55.40;;;;;;3061681;28;20617;-77
2021/05/07 05:41:21;;;;;;;2.30;0.60;;;21.70;55.40;;;;;;3062150;29;20489;-77
2021/05/07 05:42:52;;;;;;;4.47;0.80;;;21.70;55.40;;;;;;3061896;29;20091;-76
2021/05/07 05:44:23;;;;;;;7.18;0.90;;;21.70;56.00;;;;;;3061474;29;20084;-77
2021/05/07 05:45:54;;;;;;;8.00;0.80;;;21.60;55.40;;;;;;3061263;29;20696;-77
2021/05/07 05:47:25;;;;;;;3.47;1.17;;;21.70;55.50;;;;;;3062180;29;20050;-77
2021/05/07 05:48:56;;;;;;;4.82;1.15;;;21.60;55.40;;;;;;3061822;29;20089;-77
2021/05/07 05:50:27;;;;;;;4.07;0.85;;;21.60;55.40;;;;;;3061570;29;20075;-76
2021/05/07 05:51:58;;;;;;;5.05;0.75;;;21.60;55.40;;;;;;3061604;29;20052;-77
2021/05/07 05:53:29;;;;;;;3.05;0.65;;;21.60;55.30;;;;;;3062108;29;20071;-76
2021/05/07 05:55:01;;;;;;;4.00;0.73;;;21.60;55.40;;;;;;3061223;29;20048;-77
2021/05/07 05:56:32;;;;;;;3.50;0.88;;;21.70;55.40;;;;;;3061429;29;20056;-77
2021/05/07 05:58:03;;;;;;;6.63;0.63;;;21.60;55.30;;;;;;3061355;29;20075;-76
2021/05/07 05:59:34;;;;;;;5.30;0.73;;;21.60;55.30;;;;;;3061258;29;20039;-77
2021/05/07 06:01:05;;;;;;;5.72;0.73;;;21.60;55.50;;;;;;3060776;29;20110;-77
2021/05/07 06:02:36;;;;;;;3.70;0.80;;;21.60;55.80;;;;;;3061383;29;20813;-77
2021/05/07 06:04:07;;;;;;;4.32;0.80;;;21.70;55.70;;;;;;3061971;29;20052;-77
2021/05/07 06:05:38;;;;;;;2.95;0.70;;;21.70;55.50;;;;;;3056636;28;20079;-77
2021/05/07 06:07:09;;;;;;;7.57;0.80;;;21.70;55.50;;;;;;3054069;29;20054;-77
2021/05/07 06:08:40;;;;;;;8.20;0.85;;;21.70;55.50;;;;;;3061558;29;20048;-77
2021/05/07 06:10:14;;;;;;;1.83;1.00;;;21.70;55.40;;;;;;3061329;28;20075;-77
2021/05/07 06:11:45;;;;;;;5.15;0.65;;;21.70;55.30;;;;;;3053233;29;20083;-77
2021/05/07 06:13:16;;;;;;;2.45;0.63;;;21.70;55.40;;;;;;3051162;29;20044;-78
2021/05/07 06:14:46;;;;;;;4.90;0.95;;;21.80;55.40;;;;;;3059974;29;20055;-78
2021/05/07 06:16:17;;;;;;;5.32;0.70;;;21.80;55.30;;;;;;3049117;29;20529;-77
2021/05/07 06:17:48;;;;;;;2.42;0.75;;;21.70;55.30;;;;;;3056798;29;20079;-78
2021/05/07 06:19:20;;;;;;;1.35;0.60;;;21.60;55.10;;;;;;3062041;29;20048;-77
2021/05/07 06:20:51;;;;;;;2.55;0.70;;;21.60;54.90;;;;;;3061909;29;20503;-77
2021/05/07 06:22:21;;;;;;;2.00;0.60;;;21.60;54.80;;;;;;3061384;29;20110;-78
2021/05/07 06:23:52;;;;;;;2.10;0.63;;;21.50;54.60;;;;;;3061690;29;20118;-77
2021/05/07 06:25:25;;;;;;;3.85;0.60;;;21.50;54.50;;;;;;3060549;29;20072;-77
2021/05/07 06:26:56;;;;;;;;;;;21.40;54.50;;;;;;3062427;29;20044;-77
2021/05/07 06:28:27;;;;;;;2.83;0.82;;;21.40;54.00;;;;;;3061497;29;19930;-78
2021/05/07 06:29:58;;;;;;;1.60;0.70;;;21.40;54.20;;;;;;3061358;29;20094;-78
2021/05/07 06:31:29;;;;;;;2.10;0.70;;;21.40;54.20;;;;;;3060825;29;20051;-79
2021/05/07 06:33:00;;;;;;;2.03;0.82;;;21.40;54.20;;;;;;3061735;29;20087;-77
2021/05/07 06:34:32;;;;;;;36.90;6.85;;;21.40;54.20;;;;;;3060222;29;20082;-79
2021/05/07 06:36:04;;;;;;;80.95;13.05;;;21.40;56.80;;;;;;3061594;29;20060;-79
2021/05/07 06:37:35;;;;;;;85.18;15.02;;;21.40;57.40;;;;;;3061980;29;20428;-78
2021/05/07 06:39:06;;;;;;;81.15;14.20;;;21.40;58.00;;;;;;3061762;29;20050;-78
2021/05/07 06:40:38;;;;;;;38.15;7.80;;;21.40;59.50;;;;;;3054911;29;20059;-78
2021/05/07 06:42:09;;;;;;;40.67;10.40;;;21.40;58.00;;;;;;3049995;29;20418;-79
2021/05/07 06:43:40;;;;;;;37.10;7.90;;;21.40;59.30;;;;;;3049794;29;20056;-78
2021/05/07 06:45:12;;;;;;;31.88;8.18;;;21.40;58.60;;;;;;3048190;29;20059;-78
2021/05/07 06:46:43;;;;;;;38.38;8.25;;;21.40;58.50;;;;;;3049749;29;20519;-79
2021/05/07 06:48:14;;;;;;;28.90;7.80;;;21.40;59.30;;;;;;3049689;29;20056;-78
2021/05/07 06:49:45;;;;;;;35.10;7.45;;;21.40;59.50;;;;;;3058804;29;20107;-78
2021/05/07 06:51:16;;;;;;;30.00;6.50;;;21.40;59.70;;;;;;3055537;29;20552;-79
2021/05/07 06:52:47;;;;;;;24.33;6.35;;;21.40;59.80;;;;;;3056029;29;20054;-79
2021/05/07 06:54:25;;;;;;;24.52;5.38;;;21.40;59.20;;;;;;3061225;29;20051;-79
2021/05/07 06:55:57;;;;;;;14.50;3.92;;;21.40;57.60;;;;;;3050186;29;20112;-79
2021/05/07 06:57:28;;;;;;;16.13;3.83;;;21.40;56.60;;;;;;3049361;29;20519;-79
2021/05/07 06:58:59;;;;;;;16.75;4.20;;;21.40;57.10;;;;;;3049776;29;20047;-79
2021/05/07 07:00:33;;;;;;;16.70;4.30;;;21.40;57.80;;;;;;3048378;29;20076;-78
2021/05/07 07:02:04;;;;;;;14.93;3.80;;;21.40;57.50;;;;;;3049994;29;20142;-78
2021/05/07 07:03:35;;;;;;;16.98;4.32;;;21.40;58.00;;;;;;3049478;29;20087;-79
2021/05/07 07:05:07;;;;;;;10.45;3.85;;;21.40;57.30;;;;;;3049080;29;20083;-77
2021/05/07 07:06:38;;;;;;;15.02;4.05;;;21.40;57.90;;;;;;3053625;29;20527;-78
2021/05/07 07:08:09;;;;;;;15.63;3.65;;;21.40;57.60;;;;;;3059588;29;20087;-79
2021/05/07 07:09:40;;;;;;;10.57;3.38;;;21.50;57.60;;;;;;3049053;29;20071;-77
2021/05/07 07:11:12;;;;;;;8.98;3.05;;;21.50;56.80;;;;;;3054031;29;20224;-79
2021/05/07 07:12:43;;;;;;;10.77;3.20;;;21.40;55.50;;;;;;3062081;29;20055;-78
2021/05/07 07:14:17;;;;;;;9.85;3.38;;;21.50;55.70;;;;;;3055818;29;20311;-77
2021/05/07 07:15:48;;;;;;;11.55;3.42;;;21.40;56.30;;;;;;3059951;29;20533;-78
2021/05/07 07:17:19;;;;;;;11.27;3.25;;;21.40;56.00;;;;;;3061032;29;20082;-78
2021/05/07 07:18:50;;;;;;;12.45;3.33;;;21.40;56.20;;;;;;3061039;29;20062;-78
2021/05/07 07:20:21;;;;;;;12.73;3.25;;;21.50;55.90;;;;;;3061789;29;20047;-77
2021/05/07 07:21:52;;;;;;;8.35;2.90;;;21.50;55.40;;;;;;3062003;29;20086;-77
2021/05/07 07:23:23;;;;;;;11.02;2.90;;;21.50;55.60;;;;;;3061756;29;20099;-77
2021/05/07 07:24:54;;;;;;;9.60;2.88;;;21.50;55.50;;;;;;3061140;29;20550;-78
2021/05/07 07:26:26;;;;;;;9.70;2.75;;;21.50;55.50;;;;;;3060916;29;20051;-79
2021/05/07 07:27:58;;;;;;;10.20;2.70;;;21.50;55.30;;;;;;3061945;29;20075;-79
2021/05/07 07:29:29;;;;;;;18.52;3.00;;;21.50;54.90;;;;;;3060762;29;20126;-79
2021/05/07 07:31:00;;;;;;;14.70;2.70;;;21.50;55.00;;;;;;3060291;29;20612;-79
2021/05/07 07:32:31;;;;;;;10.15;2.40;;;21.50;55.00;;;;;;3061137;29;20079;-78
2021/05/07 07:34:02;;;;;;;7.95;2.60;;;21.50;54.90;;;;;;3060540;29;20094;-78
2021/05/07 07:35:33;;;;;;;7.95;2.83;;;21.50;54.90;;;;;;3060616;29;20370;-78
2021/05/07 07:37:04;;;;;;;8.05;2.53;;;21.50;54.80;;;;;;3057237;29;20077;-80
2021/05/07 07:38:35;;;;;;;9.30;2.55;;;21.50;54.70;;;;;;3057543;29;20067;-79
2021/05/07 07:40:07;;;;;;;8.65;2.20;;;21.40;54.70;;;;;;3061141;28;20469;-80
2021/05/07 07:41:39;;;;;;;8.20;2.30;;;21.40;54.70;;;;;;3062391;29;20071;-78
2021/05/07 07:43:10;;;;;;;6.80;2.55;;;21.40;54.70;;;;;;3061009;29;20048;-78
2021/05/07 07:44:41;;;;;;;7.40;2.35;;;21.40;54.80;;;;;;3060154;29;20046;-78
2021/05/07 07:46:11;;;;;;;6.63;2.42;;;21.40;54.80;;;;;;3059988;29;20071;-79
2021/05/07 07:47:43;;;;;;;8.70;2.20;;;21.40;54.70;;;;;;3061241;29;20418;-78
2021/05/07 07:49:14;;;;;;;6.32;2.17;;;21.40;54.50;;;;;;3060421;29;20063;-79
2021/05/07 07:50:45;;;;;;;5.93;2.20;;;21.40;54.60;;;;;;3060892;29;20052;-79
2021/05/07 07:52:16;;;;;;;8.57;2.38;;;21.40;54.70;;;;;;3062644;29;20399;-79
2021/05/07 07:53:47;;;;;;;13.13;2.03;;;21.40;54.60;;;;;;3063722;29;20043;-79
2021/05/07 07:55:18;;;;;;;8.27;2.10;;;21.40;54.70;;;;;;3062607;29;20044;-79
2021/05/07 07:56:50;;;;;;;5.10;2.00;;;21.40;54.50;;;;;;3063347;29;20604;-78
2021/05/07 07:58:20;;;;;;;7.85;2.03;;;21.40;54.40;;;;;;3063557;29;20055;-79